Time;durP1;ratioP1;P1;durP2;ratioP2;P2;SDS_P1;SDS_P2;PMS_P1;PMS_P2;Temp;Humidity;BMP_temperature;BMP_pressure;BME280_temperature;BME280_humidity;BME280_pressure;Samples;Min_cycle;Max_cycle;Signal;HPM_P1;HPM_P2
2022/01/04 00:02:25;;;;;;;38.73;21.67;;;;;;;-141.29;100.00;58932.97;5074175;28;20446;-75
2022/01/04 00:04:51;;;;;;;39.70;20.50;;;;;;;-141.29;100.00;58932.97;5074168;28;20527;-75
2022/01/04 00:07:18;;;;;;;38.33;20.63;;;;;;;-141.29;100.00;58932.97;5073867;28;20527;-75
2022/01/04 00:09:46;;;;;;;41.10;20.80;;;;;;;-141.29;100.00;58932.97;5074095;28;20450;-76
2022/01/04 00:14:58;;;;;;;70.63;29.27;;;;;;;-141.29;100.00;58932.97;5074334;28;20421;-75
2022/01/04 00:17:30;;;;;;;61.60;25.70;;;;;;;-141.29;100.00;58932.97;5075041;28;20503;-75
2022/01/04 00:19:58;;;;;;;46.33;22.53;;;;;;;-141.29;100.00;58932.97;5073230;28;20438;-74
2022/01/04 00:22:25;;;;;;;42.97;22.53;;;;;;;-141.29;100.00;58932.97;5074085;28;20451;-75
2022/01/04 00:24:52;;;;;;;50.73;24.13;;;;;;;-141.29;100.00;58932.97;5074183;28;20929;-76
2022/01/04 00:27:19;;;;;;;49.33;23.83;;;;;;;-141.29;100.00;58932.97;5073761;28;20450;-75
2022/01/04 00:29:45;;;;;;;44.63;23.20;;;;;;;-141.29;100.00;58932.97;5073794;28;20503;-75
2022/01/04 00:32:14;;;;;;;49.90;22.90;;;;;;;-141.29;100.00;58932.97;5073855;28;20590;-75
2022/01/04 00:34:43;;;;;;;47.97;23.57;;;;;;;-141.29;100.00;58932.97;5073954;28;20459;-75
2022/01/04 00:37:10;;;;;;;50.47;21.97;;;;;;;-141.29;100.00;58932.97;5074136;28;20530;-75
2022/01/04 00:39:38;;;;;;;49.50;23.77;;;;;;;-141.29;100.00;58932.97;5073787;28;20487;-74
2022/01/04 00:42:06;;;;;;;47.80;22.43;;;;;;;-141.29;100.00;58932.97;5073573;28;20539;-75
2022/01/04 00:44:34;;;;;;;39.40;21.30;;;;;;;-141.29;100.00;58932.97;5073547;28;20470;-74
2022/01/04 00:47:01;;;;;;;41.30;20.43;;;;;;;-141.29;100.00;58932.97;5073344;28;20441;-75
2022/01/04 00:49:28;;;;;;;50.73;22.40;;;;;;;-141.29;100.00;58932.97;5073174;28;20442;-72
2022/01/04 00:51:59;;;;;;;43.83;20.33;;;;;;;-141.29;100.00;58932.97;5073600;28;20912;-75
2022/01/04 00:54:27;;;;;;;43.70;21.33;;;;;;;-141.29;100.00;58932.97;5072851;28;20450;-74
2022/01/04 00:56:54;;;;;;;42.07;19.13;;;;;;;-141.29;100.00;58932.97;5073384;28;20822;-74
2022/01/04 00:59:23;;;;;;;42.33;19.93;;;;;;;-141.29;100.00;58932.97;5073352;28;20447;-74
2022/01/04 01:01:52;;;;;;;40.40;19.47;;;;;;;-141.29;100.00;58932.97;5073070;28;20443;-75
2022/01/04 01:04:19;;;;;;;34.37;16.90;;;;;;;-141.29;100.00;58932.97;5072139;28;20438;-76
2022/01/04 01:06:48;;;;;;;31.90;16.97;;;;;;;-141.29;100.00;58932.97;5072978;28;20443;-75
2022/01/04 01:09:16;;;;;;;34.07;17.33;;;;;;;-141.29;100.00;58932.97;5071612;28;20904;-75
2022/01/04 01:11:43;;;;;;;33.03;17.73;;;;;;;-141.29;100.00;58932.97;5072581;28;20495;-75
2022/01/04 01:14:11;;;;;;;31.47;17.70;;;;;;;-141.29;100.00;58932.97;5072925;28;20495;-76
2022/01/04 01:16:40;;;;;;;41.10;19.47;;;;;;;-141.29;100.00;58932.97;5072974;28;20439;-75
2022/01/04 01:19:07;;;;;;;39.77;19.83;;;;;;;-141.29;100.00;58932.97;5072943;28;20427;-75
2022/01/04 01:21:34;;;;;;;44.60;19.93;;;;;;;-141.29;100.00;58932.97;5072655;28;20866;-75
2022/01/04 01:24:09;;;;;;;31.30;17.80;;;;;;;-141.29;100.00;58932.97;5072917;28;20439;-75
2022/01/04 01:26:37;;;;;;;38.80;19.30;;;;;;;-141.29;100.00;58932.97;5074271;28;21035;-74
2022/01/04 01:29:04;;;;;;;37.83;19.47;;;;;;;-141.29;100.00;58932.97;5073857;28;20434;-75
2022/01/04 01:31:32;;;;;;;38.77;19.13;;;;;;;-141.29;100.00;58932.97;5072585;28;20501;-75
2022/01/04 01:33:59;;;;;;;34.90;19.30;;;;;;;-141.29;100.00;58932.97;5072552;28;20873;-74
2022/01/04 01:36:27;;;;;;;35.77;18.80;;;;;;;-141.29;100.00;58932.97;5071996;28;20901;-75
2022/01/04 01:38:55;;;;;;;42.80;20.87;;;;;;;-141.29;100.00;58932.97;5072127;28;20454;-73
2022/01/04 01:41:24;;;;;;;40.90;19.57;;;;;;;-141.29;100.00;58932.97;5072575;28;20973;-75
2022/01/04 01:43:51;;;;;;;35.27;18.20;;;;;;;-141.29;100.00;58932.97;5071493;28;21008;-72
2022/01/04 01:46:18;;;;;;;37.10;19.07;;;;;;;-141.29;100.00;58932.97;5072426;28;20450;-75
2022/01/04 01:48:45;;;;;;;36.10;19.30;;;;;;;-141.29;100.00;58932.97;5072404;28;20442;-74
2022/01/04 01:51:16;;;;;;;40.20;19.50;;;;;;;-141.29;100.00;58932.97;5071151;28;20439;-74
2022/01/04 01:53:43;;;;;;;37.63;19.77;;;;;;;-141.29;100.00;58932.97;5072196;28;20465;-75
2022/01/04 01:56:11;;;;;;;41.43;20.77;;;;;;;-141.29;100.00;58932.97;5072106;28;20499;-74
2022/01/04 01:58:41;;;;;;;39.73;20.03;;;;;;;-141.29;100.00;58932.97;5071618;28;20839;-72
2022/01/04 02:01:11;;;;;;;41.07;20.93;;;;;;;-141.29;100.00;58932.97;5071967;28;20442;-76
2022/01/04 02:03:43;;;;;;;31.73;19.17;;;;;;;-141.29;100.00;58932.97;5072424;28;20451;-75
2022/01/04 02:06:13;;;;;;;34.87;18.97;;;;;;;-141.29;100.00;58932.97;5072272;28;20450;-74
2022/01/04 02:08:40;;;;;;;39.93;19.80;;;;;;;-141.29;100.00;58932.97;5071033;28;21028;-76
2022/01/04 02:11:09;;;;;;;46.47;21.67;;;;;;;-141.29;100.00;58932.97;5072145;28;20443;-72
2022/01/04 02:13:39;;;;;;;52.40;24.03;;;;;;;-141.29;100.00;58932.97;5071890;28;20962;-75
2022/01/04 02:16:11;;;;;;;43.30;22.83;;;;;;;-141.29;100.00;58932.97;5071798;28;20443;-75
2022/01/04 02:18:38;;;;;;;44.37;23.43;;;;;;;-141.29;100.00;58932.97;5071816;28;20501;-74
2022/01/04 02:23:52;;;;;;;47.00;22.30;;;;;;;-141.29;100.00;58932.97;5071958;28;20446;-74
2022/01/04 02:26:19;;;;;;;41.13;21.03;;;;;;;-141.29;100.00;58932.97;5072231;28;20442;-75
2022/01/04 02:28:48;;;;;;;39.27;17.40;;;;;;;-141.29;100.00;58932.97;5071748;28;20511;-74
2022/01/04 02:31:15;;;;;;;29.30;16.27;;;;;;;-141.29;100.00;58932.97;5071637;28;20521;-74
2022/01/04 02:33:42;;;;;;;35.90;18.80;;;;;;;-141.29;100.00;58932.97;5070446;28;20434;-76
2022/01/04 02:36:26;;;;;;;35.47;17.50;;;;;;;-141.29;100.00;58932.97;5071625;28;20496;-76
2022/01/04 02:38:54;;;;;;;21.73;11.30;;;;;;;-141.29;100.00;58932.97;5072296;28;20453;-75
2022/01/04 02:41:23;;;;;;;23.27;12.97;;;;;;;-141.29;100.00;58932.97;5072047;28;20861;-73
2022/01/04 02:43:50;;;;;;;24.83;12.97;;;;;;;-141.29;100.00;58932.97;5071867;28;20474;-74
2022/01/04 02:46:17;;;;;;;29.10;15.43;;;;;;;-141.29;100.00;58932.97;5071533;28;20957;-74
2022/01/04 02:48:46;;;;;;;29.57;14.23;;;;;;;-141.29;100.00;58932.97;5071485;28;20956;-75
2022/01/04 02:51:14;;;;;;;27.57;14.67;;;;;;;-141.29;100.00;58932.97;5071620;28;20531;-74
2022/01/04 02:53:43;;;;;;;28.43;14.97;;;;;;;-141.29;100.00;58932.97;5072308;28;20442;-74
2022/01/04 02:56:12;;;;;;;23.10;13.20;;;;;;;-141.29;100.00;58932.97;5071297;28;20442;-74
2022/01/04 02:58:44;;;;;;;19.20;10.63;;;;;;;-141.29;100.00;58932.97;5070293;28;20438;-76
2022/01/04 03:01:13;;;;;;;18.33;9.40;;;;;;;-141.29;100.00;58932.97;5071692;28;20453;-77
2022/01/04 03:03:45;;;;;;;24.37;12.53;;;;;;;-141.29;100.00;58932.97;5071459;28;20496;-75
2022/01/04 03:06:15;;;;;;;14.57;7.93;;;;;;;-141.29;100.00;58932.97;5071477;28;20423;-75
2022/01/04 03:08:44;;;;;;;17.60;10.10;;;;;;;-141.29;100.00;58932.97;5071748;28;20423;-74
2022/01/04 03:11:14;;;;;;;17.97;10.07;;;;;;;-141.29;100.00;58932.97;5071551;28;20591;-73
2022/01/04 03:13:41;;;;;;;20.03;10.40;;;;;;;-141.29;100.00;58932.97;5071942;28;20576;-75
2022/01/04 03:16:12;;;;;;;21.70;9.73;;;;;;;-141.29;100.00;58932.97;5070015;28;20479;-74
2022/01/04 03:19:01;;;;;;;11.33;6.30;;;;;;;-141.29;100.00;58932.97;5071975;28;20442;-75
2022/01/04 03:21:28;;;;;;;18.07;7.13;;;;;;;-141.29;100.00;58932.97;5071259;28;20439;-75
2022/01/04 03:24:00;;;;;;;24.17;10.10;;;;;;;-141.29;100.00;58932.97;5071152;28;20960;-75
2022/01/04 03:26:27;;;;;;;21.90;11.83;;;;;;;-141.29;100.00;58932.97;5072445;28;20442;-74
2022/01/04 03:28:55;;;;;;;25.23;11.40;;;;;;;-141.29;100.00;58932.97;5074903;28;20450;-74
2022/01/04 03:31:22;;;;;;;25.60;11.80;;;;;;;-141.29;100.00;58932.97;5074721;28;20500;-77
2022/01/04 03:33:49;;;;;;;26.13;11.90;;;;;;;-141.29;100.00;58932.97;5074974;28;20493;-73
2022/01/04 03:36:20;;;;;;;26.83;13.07;;;;;;;-141.29;100.00;58932.97;5075980;28;20464;-76
2022/01/04 03:38:52;;;;;;;22.90;10.80;;;;;;;-141.29;100.00;58932.97;5076693;28;20488;-74
2022/01/04 03:41:22;;;;;;;22.17;11.17;;;;;;;-141.29;100.00;58932.97;5074592;28;20450;-75
2022/01/04 03:43:51;;;;;;;19.40;10.07;;;;;;;-141.29;100.00;58932.97;5073431;28;20480;-74
2022/01/04 03:46:18;;;;;;;19.67;9.53;;;;;;;-141.29;100.00;58932.97;5074523;28;20435;-75
2022/01/04 03:48:45;;;;;;;16.80;8.93;;;;;;;-141.29;100.00;58932.97;5074531;28;20869;-74
2022/01/04 03:51:14;;;;;;;18.80;10.30;;;;;;;-141.29;100.00;58932.97;5074696;28;20435;-75
2022/01/04 03:53:41;;;;;;;25.73;11.87;;;;;;;-141.29;100.00;58932.97;5074294;28;20481;-76
2022/01/04 03:56:08;;;;;;;21.67;11.67;;;;;;;-141.29;100.00;58932.97;5075112;28;20438;-73
2022/01/04 03:58:37;;;;;;;19.40;11.47;;;;;;;-141.29;100.00;58932.97;5074637;28;20492;-76
2022/01/04 04:01:05;;;;;;;28.53;13.57;;;;;;;-141.29;100.00;58932.97;5075079;28;20791;-74
2022/01/04 04:03:34;;;;;;;30.70;15.20;;;;;;;-141.29;100.00;58932.97;5074154;28;20438;-74
2022/01/04 04:06:01;;;;;;;32.80;16.10;;;;;;;-141.29;100.00;58932.97;5074271;28;20438;-75
2022/01/04 04:08:30;;;;;;;41.07;19.13;;;;;;;-141.29;100.00;58932.97;5074016;28;20473;-75
2022/01/04 04:10:56;;;;;;;35.97;19.43;;;;;;;-141.29;100.00;58932.97;5074343;28;20442;-74
2022/01/04 04:13:24;;;;;;;36.97;19.20;;;;;;;-141.29;100.00;58932.97;5074041;28;20489;-76
2022/01/04 04:15:53;;;;;;;44.80;23.93;;;;;;;-141.29;100.00;58932.97;5074172;28;20447;-75
2022/01/04 04:18:20;;;;;;;49.00;24.47;;;;;;;-141.29;100.00;58932.97;5072832;28;20437;-75
2022/01/04 04:20:47;;;;;;;47.70;22.70;;;;;;;-141.29;100.00;58932.97;5073876;28;20438;-75
2022/01/04 04:23:16;;;;;;;40.73;21.37;;;;;;;-141.29;100.00;58932.97;5073732;28;20450;-77
2022/01/04 04:25:43;;;;;;;44.47;20.53;;;;;;;-141.29;100.00;58932.97;5073692;28;20814;-73
2022/01/04 04:28:10;;;;;;;42.87;21.33;;;;;;;-141.29;100.00;58932.97;5074074;28;20477;-75
2022/01/04 04:30:40;;;;;;;49.53;26.80;;;;;;;-141.29;100.00;58932.97;5074067;28;20449;-74
2022/01/04 04:33:09;;;;;;;47.40;26.43;;;;;;;-141.29;100.00;58932.97;5073925;28;21024;-76
2022/01/04 04:35:42;;;;;;;44.73;23.63;;;;;;;-141.29;100.00;58932.97;5073882;28;20466;-76
2022/01/04 04:38:15;;;;;;;47.83;24.43;;;;;;;-141.29;100.00;58932.97;5073956;28;20435;-77
2022/01/04 04:40:42;;;;;;;50.40;23.23;;;;;;;-141.29;100.00;58932.97;5073916;28;20500;-74
2022/01/04 04:43:12;;;;;;;42.93;22.83;;;;;;;-141.29;100.00;58932.97;5073050;28;20512;-75
2022/01/04 04:45:40;;;;;;;47.70;23.03;;;;;;;-141.29;100.00;58932.97;5073364;28;20474;-74
2022/01/04 04:48:09;;;;;;;53.30;21.57;;;;;;;-141.29;100.00;58932.97;5072250;28;20444;-75
2022/01/04 04:50:36;;;;;;;47.80;23.47;;;;;;;-141.29;100.00;58932.97;5073158;28;20426;-76
2022/01/04 04:53:03;;;;;;;45.67;23.47;;;;;;;-141.29;100.00;58932.97;5073547;28;20531;-75
2022/01/04 04:55:30;;;;;;;45.60;21.00;;;;;;;-141.29;100.00;58932.97;5073320;28;20447;-75
2022/01/04 04:58:01;;;;;;;51.50;24.40;;;;;;;-141.29;100.00;58932.97;5073313;28;20890;-74
2022/01/04 05:00:30;;;;;;;41.40;22.50;;;;;;;-141.29;100.00;58932.97;5070774;28;20442;-76
2022/01/04 05:02:58;;;;;;;40.70;20.67;;;;;;;-141.29;100.00;58932.97;5072917;28;20488;-74
2022/01/04 05:05:30;;;;;;;42.27;21.57;;;;;;;-141.29;100.00;58932.97;5073553;28;20532;-75
2022/01/04 05:08:01;;;;;;;47.37;22.57;;;;;;;-141.29;100.00;58932.97;5073159;28;20438;-76
2022/01/04 05:10:28;;;;;;;49.37;21.90;;;;;;;-141.29;100.00;58932.97;5072965;28;20450;-75
2022/01/04 05:12:56;;;;;;;51.70;22.10;;;;;;;-141.29;100.00;58932.97;5072580;28;20490;-76
2022/01/04 05:15:25;;;;;;;52.03;24.47;;;;;;;-141.29;100.00;58932.97;5073602;28;20442;-75
2022/01/04 05:17:59;;;;;;;50.47;23.90;;;;;;;-141.29;100.00;58932.97;5072801;28;20937;-75
2022/01/04 05:20:25;;;;;;;47.73;22.20;;;;;;;-141.29;100.00;58932.97;5072711;28;20459;-74
2022/01/04 05:22:54;;;;;;;42.53;22.93;;;;;;;-141.29;100.00;58932.97;5071652;28;20427;-76
2022/01/04 05:25:23;;;;;;;55.13;26.73;;;;;;;-141.29;100.00;58932.97;5071484;28;20535;-74
2022/01/04 05:27:50;;;;;;;57.17;27.60;;;;;;;-141.29;100.00;58932.97;5072544;28;20961;-74
2022/01/04 05:30:17;;;;;;;57.23;25.57;;;;;;;-141.29;100.00;58932.97;5072915;28;20427;-76
2022/01/04 05:32:44;;;;;;;55.73;25.63;;;;;;;-141.29;100.00;58932.97;5072759;28;20528;-76
2022/01/04 05:35:12;;;;;;;58.47;27.53;;;;;;;-141.29;100.00;58932.97;5072657;28;20474;-76
2022/01/04 05:37:40;;;;;;;62.53;27.27;;;;;;;-141.29;100.00;58932.97;5072530;28;20434;-75
2022/01/04 05:40:10;;;;;;;58.43;25.47;;;;;;;-141.29;100.00;58932.97;5072297;28;20439;-73
2022/01/04 05:42:39;;;;;;;43.47;20.13;;;;;;;-141.29;100.00;58932.97;5072677;28;20937;-75
2022/01/04 05:45:08;;;;;;;27.17;15.87;;;;;;;-141.29;100.00;58932.97;5073078;28;20470;-73
2022/01/04 05:47:35;;;;;;;27.17;12.67;;;;;;;-141.29;100.00;58932.97;5077766;28;20500;-76
2022/01/04 05:50:03;;;;;;;36.67;20.13;;;;;;;-141.29;100.00;58932.97;5070561;28;20532;-73
2022/01/04 05:52:31;;;;;;;35.10;14.53;;;;;;;-141.29;100.00;58932.97;5072330;28;20474;-75
2022/01/04 05:55:00;;;;;;;28.90;14.70;;;;;;;-141.29;100.00;58932.97;5071038;28;20438;-75
2022/01/04 05:57:29;;;;;;;21.37;11.10;;;;;;;-141.29;100.00;58932.97;5072268;28;20430;-74
2022/01/04 05:59:57;;;;;;;36.10;16.50;;;;;;;-141.29;100.00;58932.97;5072315;28;20538;-75
2022/01/04 06:02:24;;;;;;;31.97;14.47;;;;;;;-141.29;100.00;58932.97;5072314;28;20443;-74
2022/01/04 06:04:54;;;;;;;80.70;31.70;;;;;;;-141.29;100.00;58932.97;5072022;28;20442;-73
2022/01/04 06:07:21;;;;;;;45.33;21.63;;;;;;;-141.29;100.00;58932.97;5071971;28;20439;-73
2022/01/04 06:09:51;;;;;;;82.57;38.93;;;;;;;-141.29;100.00;58932.97;5072019;28;20455;-75
2022/01/04 06:15:07;;;;;;;45.27;21.97;;;;;;;-141.29;100.00;58932.97;5072364;28;20511;-74
2022/01/04 06:17:36;;;;;;;71.87;32.17;;;;;;;-141.29;100.00;58932.97;5072205;28;20435;-75
2022/01/04 06:20:07;;;;;;;83.23;32.63;;;;;;;-141.29;100.00;58932.97;5072091;28;20458;-74
2022/01/04 06:22:34;;;;;;;83.80;34.53;;;;;;;-141.29;100.00;58932.97;5071897;28;20435;-73
2022/01/04 06:25:02;;;;;;;96.07;42.43;;;;;;;-141.29;100.00;58932.97;5071975;28;20791;-74
2022/01/04 06:27:34;;;;;;;74.33;33.23;;;;;;;-141.29;100.00;58932.97;5071855;28;20438;-75
2022/01/04 06:30:04;;;;;;;55.73;27.67;;;;;;;-141.29;100.00;58932.97;5072005;28;20427;-76
2022/01/04 06:32:32;;;;;;;58.50;25.87;;;;;;;-141.29;100.00;58932.97;5071413;28;20534;-74
2022/01/04 06:35:00;;;;;;;50.90;27.90;;;;;;;-141.29;100.00;58932.97;5071555;28;20431;-74
2022/01/04 06:37:27;;;;;;;47.83;28.10;;;;;;;-141.29;100.00;58932.97;5071563;28;20442;-73
2022/01/04 06:39:55;;;;;;;50.17;27.30;;;;;;;-141.29;100.00;58932.97;5071138;28;20921;-76
2022/01/04 06:42:22;;;;;;;56.87;27.67;;;;;;;-141.29;100.00;58932.97;5071283;28;20485;-75
2022/01/04 06:44:50;;;;;;;62.93;30.20;;;;;;;-141.29;100.00;58932.97;5070691;28;20490;-73
2022/01/04 06:47:19;;;;;;;75.57;37.90;;;;;;;-141.29;100.00;58932.97;5070450;28;20446;-74
2022/01/04 06:49:47;;;;;;;70.20;35.67;;;;;;;-141.29;100.00;58932.97;5071269;28;20451;-75
2022/01/04 06:52:14;;;;;;;62.67;29.40;;;;;;;-141.29;100.00;58932.97;5071541;28;20438;-74
2022/01/04 06:54:41;;;;;;;46.50;23.73;;;;;;;-141.29;100.00;58932.97;5071218;28;21017;-74
2022/01/04 06:57:08;;;;;;;49.33;27.70;;;;;;;-141.29;100.00;58932.97;5071485;28;20496;-73
2022/01/04 06:59:36;;;;;;;57.73;30.43;;;;;;;-141.29;100.00;58932.97;5071393;28;20443;-75
2022/01/04 07:02:04;;;;;;;66.07;36.20;;;;;;;-141.29;100.00;58932.97;5072951;28;20548;-75
2022/01/04 07:04:33;;;;;;;74.83;38.93;;;;;;;-141.29;100.00;58932.97;5074140;28;20438;-75
2022/01/04 07:07:01;;;;;;;60.83;38.20;;;;;;;-141.29;100.00;58932.97;5075467;28;20446;-74
2022/01/04 07:09:28;;;;;;;99.20;54.03;;;;;;;-141.29;100.00;58932.97;5075398;28;20928;-76
2022/01/04 07:11:57;;;;;;;99.53;57.40;;;;;;;-141.29;100.00;58932.97;5075193;28;21029;-74
2022/01/04 07:14:24;;;;;;;62.73;37.43;;;;;;;-141.29;100.00;58932.97;5075175;28;20518;-73
2022/01/04 07:16:52;;;;;;;69.30;34.47;;;;;;;-141.29;100.00;58932.97;5075247;28;20516;-76
2022/01/04 07:19:19;;;;;;;56.67;30.53;;;;;;;-141.29;100.00;58932.97;5074907;28;21002;-74
2022/01/04 07:21:51;;;;;;;54.87;31.50;;;;;;;-141.29;100.00;58932.97;5075551;28;20800;-75
2022/01/04 07:24:19;;;;;;;55.27;31.40;;;;;;;-141.29;100.00;58932.97;5075060;28;20455;-74
2022/01/04 07:26:47;;;;;;;65.30;34.53;;;;;;;-141.29;100.00;58932.97;5075613;28;20485;-75
2022/01/04 07:29:15;;;;;;;78.30;34.80;;;;;;;-141.29;100.00;58932.97;5074986;28;21020;-74
2022/01/04 07:31:45;;;;;;;63.37;30.00;;;;;;;-141.29;100.00;58932.97;5075235;28;20441;-75
2022/01/04 07:34:13;;;;;;;61.00;31.13;;;;;;;-141.29;100.00;58932.97;5074912;28;20482;-75
2022/01/04 07:36:40;;;;;;;96.30;44.77;;;;;;;-141.29;100.00;58932.97;5074299;28;20451;-77
2022/01/04 07:39:09;;;;;;;108.37;54.50;;;;;;;-141.29;100.00;58932.97;5074738;28;20435;-76
2022/01/04 07:41:36;;;;;;;88.37;43.60;;;;;;;-141.29;100.00;58932.97;5074619;28;20793;-74
2022/01/04 07:44:05;;;;;;;67.33;36.03;;;;;;;-141.29;100.00;58932.97;5074091;28;21016;-75
2022/01/04 07:46:33;;;;;;;62.43;32.27;;;;;;;-141.29;100.00;58932.97;5073935;28;20453;-74
2022/01/04 07:49:02;;;;;;;55.03;29.63;;;;;;;-141.29;100.00;58932.97;5074974;28;20431;-75
2022/01/04 07:51:31;;;;;;;47.37;26.90;;;;;;;-141.29;100.00;58932.97;5074578;28;20529;-73
2022/01/04 07:53:58;;;;;;;44.27;23.93;;;;;;;-141.29;100.00;58932.97;5076730;28;21084;-76
2022/01/04 07:56:31;;;;;;;45.13;25.83;;;;;;;-141.29;100.00;58932.97;5076444;28;20531;-76
2022/01/04 07:59:00;;;;;;;43.47;24.57;;;;;;;-141.29;100.00;58932.97;5074542;28;20517;-76
2022/01/04 08:01:34;;;;;;;39.83;23.67;;;;;;;-141.29;100.00;58932.97;5073261;28;20434;-75
2022/01/04 08:04:04;;;;;;;45.10;22.00;;;;;;;-141.29;100.00;58932.97;5074162;28;20450;-74
2022/01/04 08:06:35;;;;;;;40.17;22.50;;;;;;;-141.29;100.00;58932.97;5074695;28;20443;-75
2022/01/04 08:09:02;;;;;;;41.20;22.73;;;;;;;-141.29;100.00;58932.97;5074168;28;20442;-73
2022/01/04 08:11:38;;;;;;;50.10;24.87;;;;;;;-141.29;100.00;58932.97;5073922;28;20439;-75
2022/01/04 08:14:06;;;;;;;49.33;25.97;;;;;;;-141.29;100.00;58932.97;5072233;28;20474;-74
2022/01/04 08:16:33;;;;;;;43.70;22.53;;;;;;;-141.29;100.00;58932.97;5074064;28;20455;-74
2022/01/04 08:19:00;;;;;;;42.00;21.17;;;;;;;-141.29;100.00;58932.97;5072708;28;20443;-74
2022/01/04 08:21:31;;;;;;;38.00;20.63;;;;;;;-141.29;100.00;58932.97;5073978;28;20944;-73
2022/01/04 08:24:00;;;;;;;39.73;20.37;;;;;;;-141.29;100.00;58932.97;5074033;28;20443;-76
2022/01/04 08:26:36;;;;;;;35.37;21.10;;;;;;;-141.29;100.00;58932.97;5074095;28;20464;-73
2022/01/04 08:29:04;;;;;;;42.77;21.23;;;;;;;-141.29;100.00;58932.97;5072911;28;20439;-75
2022/01/04 08:31:31;;;;;;;49.17;23.60;;;;;;;-141.29;100.00;58932.97;5073430;28;20987;-74
2022/01/04 08:33:58;;;;;;;44.93;22.20;;;;;;;-141.29;100.00;58932.97;5074327;28;20509;-76
2022/01/04 08:36:28;;;;;;;38.70;21.37;;;;;;;-141.29;100.00;58932.97;5073768;28;20445;-75
2022/01/04 08:38:57;;;;;;;44.23;22.17;;;;;;;-141.29;100.00;58932.97;5073695;28;20464;-74
2022/01/04 08:41:24;;;;;;;41.73;22.53;;;;;;;-141.29;100.00;58932.97;5073293;28;20503;-74
2022/01/04 08:43:55;;;;;;;40.13;21.33;;;;;;;-141.29;100.00;58932.97;5072773;28;20540;-75
2022/01/04 08:46:22;;;;;;;37.77;19.93;;;;;;;-141.29;100.00;58932.97;5073203;28;20496;-75
2022/01/04 08:48:50;;;;;;;43.17;19.63;;;;;;;-141.29;100.00;58932.97;5073704;28;20438;-75
2022/01/04 08:51:17;;;;;;;36.30;19.60;;;;;;;-141.29;100.00;58932.97;5073141;28;21030;-74
2022/01/04 08:53:45;;;;;;;46.47;25.60;;;;;;;-141.29;100.00;58932.97;5073205;28;20539;-75
2022/01/04 08:56:13;;;;;;;51.17;25.90;;;;;;;-141.29;100.00;58932.97;5073529;28;20435;-74
2022/01/04 08:58:46;;;;;;;45.40;24.30;;;;;;;-141.29;100.00;58932.97;5073331;28;20443;-73
2022/01/04 09:01:16;;;;;;;34.50;19.83;;;;;;;-141.29;100.00;58932.97;5072343;28;20828;-75
2022/01/04 09:03:44;;;;;;;38.60;17.70;;;;;;;-141.29;100.00;58932.97;5073064;28;20455;-74
2022/01/04 09:06:15;;;;;;;28.13;16.53;;;;;;;-141.29;100.00;58932.97;5073116;28;20983;-76
2022/01/04 09:08:44;;;;;;;31.93;16.60;;;;;;;-141.29;100.00;58932.97;5073469;28;20499;-75
2022/01/04 09:11:11;;;;;;;30.03;17.70;;;;;;;-141.29;100.00;58932.97;5072570;28;20454;-75
2022/01/04 09:13:43;;;;;;;36.80;18.03;;;;;;;-141.29;100.00;58932.97;5072259;28;20490;-74
2022/01/04 09:18:56;;;;;;;38.70;20.13;;;;;;;-141.29;100.00;58932.97;5073310;28;20480;-74
2022/01/04 09:21:25;;;;;;;34.67;17.47;;;;;;;-141.29;100.00;58932.97;5072442;28;21018;-75
2022/01/04 09:23:54;;;;;;;34.60;18.23;;;;;;;-141.29;100.00;58932.97;5072288;28;20528;-74
2022/01/04 09:26:22;;;;;;;33.50;17.63;;;;;;;-141.29;100.00;58932.97;5073156;28;20533;-75
2022/01/04 09:28:51;;;;;;;36.20;19.03;;;;;;;-141.29;100.00;58932.97;5072467;28;20945;-74
2022/01/04 09:31:21;;;;;;;32.23;18.97;;;;;;;-141.29;100.00;58932.97;5072307;28;20438;-76
2022/01/04 09:33:49;;;;;;;33.00;17.43;;;;;;;-141.29;100.00;58932.97;5072143;28;20489;-76
2022/01/04 09:36:18;;;;;;;31.37;17.90;;;;;;;-141.29;100.00;58932.97;5071949;28;20455;-77
2022/01/04 09:38:45;;;;;;;30.37;17.00;;;;;;;-141.29;100.00;58932.97;5072063;28;20500;-78
2022/01/04 09:41:12;;;;;;;30.30;18.40;;;;;;;-141.29;100.00;58932.97;5072449;28;20439;-75
2022/01/04 09:43:41;;;;;;;32.33;18.33;;;;;;;-141.29;100.00;58932.97;5071849;28;20992;-76
2022/01/04 09:46:08;;;;;;;61.77;21.73;;;;;;;-141.29;100.00;58932.97;5072344;28;20945;-75
2022/01/04 09:48:35;;;;;;;43.00;22.10;;;;;;;-141.29;100.00;58932.97;5072150;28;20500;-75
2022/01/04 09:51:05;;;;;;;35.57;20.43;;;;;;;-141.29;100.00;58932.97;5071781;28;20442;-74
2022/01/04 09:53:35;;;;;;;36.80;21.03;;;;;;;-141.29;100.00;58932.97;5071844;28;20435;-75
2022/01/04 09:56:02;;;;;;;37.73;19.87;;;;;;;-141.29;100.00;58932.97;5071870;28;20468;-75
2022/01/04 09:58:30;;;;;;;35.13;19.90;;;;;;;-141.29;100.00;58932.97;5070716;28;20830;-75
2022/01/04 10:00:59;;;;;;;34.50;19.37;;;;;;;-141.29;100.00;58932.97;5072067;28;20572;-73
2022/01/04 10:03:29;;;;;;;32.87;17.63;;;;;;;-141.29;100.00;58932.97;5076357;28;20488;-73
2022/01/04 10:06:05;;;;;;;36.60;18.07;;;;;;;-141.29;100.00;58932.97;5072951;28;20442;-74
2022/01/04 10:08:34;;;;;;;35.10;18.53;;;;;;;-141.29;100.00;58932.97;5071948;28;20441;-76
2022/01/04 10:11:06;;;;;;;36.30;18.10;;;;;;;-141.29;100.00;58932.97;5071019;28;20976;-75
2022/01/04 10:13:35;;;;;;;30.93;17.20;;;;;;;-141.29;100.00;58932.97;5072054;28;20809;-76
2022/01/04 10:16:15;;;;;;;30.17;16.73;;;;;;;-141.29;100.00;58932.97;5070849;28;20454;-75
2022/01/04 10:18:46;;;;;;;46.30;19.23;;;;;;;-141.29;100.00;58932.97;5071818;28;20525;-76
2022/01/04 10:21:16;;;;;;;52.60;20.90;;;;;;;-141.29;100.00;58932.97;5071392;28;20451;-75
2022/01/04 10:23:56;;;;;;;33.20;18.90;;;;;;;-141.29;100.00;58932.97;5071739;28;20541;-75
2022/01/04 10:26:31;;;;;;;31.63;18.60;;;;;;;-141.29;100.00;58932.97;5071938;28;20446;-75
2022/01/04 10:28:58;;;;;;;37.00;19.30;;;;;;;-141.29;100.00;58932.97;5071687;28;20442;-76
2022/01/04 10:31:28;;;;;;;36.80;17.77;;;;;;;-141.29;100.00;58932.97;5070198;28;20468;-76
2022/01/04 10:33:58;;;;;;;40.03;17.97;;;;;;;-141.29;100.00;58932.97;5071376;28;21011;-79
2022/01/04 10:36:25;;;;;;;33.47;17.90;;;;;;;-141.29;100.00;58932.97;5073860;28;20446;-78
2022/01/04 10:38:55;;;;;;;28.00;15.97;;;;;;;-141.29;100.00;58932.97;5076079;28;20433;-75
2022/01/04 10:41:26;;;;;;;26.07;16.50;;;;;;;-141.29;100.00;58932.97;5075893;28;20442;-76
2022/01/04 10:43:58;;;;;;;33.07;17.40;;;;;;;-141.29;100.00;58932.97;5075671;28;20481;-76
2022/01/04 10:46:33;;;;;;;27.47;16.37;;;;;;;-141.29;100.00;58932.97;5075830;28;20442;-74
2022/01/04 10:49:13;;;;;;;24.97;15.40;;;;;;;-141.29;100.00;58932.97;5075805;28;20442;-74
2022/01/04 10:51:44;;;;;;;24.57;14.57;;;;;;;-141.29;100.00;58932.97;5075757;28;20782;-74
2022/01/04 10:54:19;;;;;;;26.07;13.77;;;;;;;-141.29;100.00;58932.97;5076058;28;20752;-74
2022/01/04 10:56:46;;;;;;;32.03;14.67;;;;;;;-141.29;100.00;58932.97;5077637;28;20208;-78
2022/01/04 10:59:16;;;;;;;27.90;14.40;;;;;;;-141.29;100.00;58932.97;5075713;28;20203;-75
2022/01/04 11:01:45;;;;;;;29.60;15.07;;;;;;;-141.29;100.00;58932.97;5074164;28;20196;-74
2022/01/04 11:04:15;;;;;;;22.27;14.00;;;;;;;-141.29;100.00;58932.97;5075261;28;20725;-74
2022/01/04 11:06:42;;;;;;;22.77;13.77;;;;;;;-141.29;100.00;58932.97;5075251;28;20204;-75
2022/01/04 11:09:12;;;;;;;27.17;16.17;;;;;;;-141.29;100.00;58932.97;5075079;28;20196;-76
2022/01/04 11:11:40;;;;;;;21.17;13.23;;;;;;;-141.29;100.00;58932.97;5074734;28;20205;-76
2022/01/04 11:14:08;;;;;;;24.53;13.03;;;;;;;-141.29;100.00;58932.97;5075470;28;20258;-74